createdAt,value
2023-09-17T00:00:54.892Z,4.18
2023-09-17T00:03:21.188Z,3.90
2023-09-17T00:05:47.428Z,4.20
2023-09-17T00:08:13.676Z,3.88
2023-09-17T00:10:40.003Z,4.75
2023-09-17T00:13:06.244Z,3.97
2023-09-17T00:15:32.429Z,4.38
2023-09-17T00:17:58.694Z,3.97
2023-09-17T00:20:24.913Z,4.22
2023-09-17T00:22:51.116Z,4.45
2023-09-17T00:25:17.451Z,4.30
2023-09-17T00:27:43.683Z,3.97
2023-09-17T00:30:09.901Z,4.95
2023-09-17T00:32:36.225Z,3.97
2023-09-17T00:35:02.499Z,4.18
2023-09-17T00:37:28.777Z,4.28
2023-09-17T00:39:54.989Z,4.20
2023-09-17T00:42:21.203Z,4.18
2023-09-17T00:44:47.480Z,3.83
2023-09-17T00:47:13.782Z,4.18
2023-09-17T00:49:40.055Z,4.70
2023-09-17T00:52:06.281Z,4.40
2023-09-17T00:54:32.454Z,3.58
2023-09-17T00:56:58.633Z,4.55
2023-09-17T00:59:24.872Z,4.18
2023-09-17T01:01:51.151Z,3.90
2023-09-17T01:04:17.494Z,4.50
2023-09-17T01:06:43.766Z,4.22
2023-09-17T01:09:09.991Z,4.30
2023-09-17T01:11:36.207Z,4.32
2023-09-17T01:14:02.462Z,4.40
2023-09-17T01:16:28.730Z,4.45
2023-09-17T01:18:55.013Z,5.03
2023-09-17T01:21:21.220Z,5.10
2023-09-17T01:23:47.390Z,4.88
2023-09-17T01:26:13.621Z,5.53
2023-09-17T01:28:39.894Z,5.35
2023-09-17T01:31:06.141Z,5.80
2023-09-17T01:33:32.379Z,5.35
2023-09-17T01:35:58.578Z,5.72
2023-09-17T01:38:24.962Z,5.90
2023-09-17T01:40:51.238Z,5.88
2023-09-17T01:43:17.534Z,4.85
2023-09-17T01:45:43.746Z,6.05
2023-09-17T01:48:09.974Z,7.07
2023-09-17T01:50:36.185Z,6.03
2023-09-17T01:53:02.406Z,6.97
2023-09-17T01:55:28.699Z,6.18
2023-09-17T01:57:54.910Z,5.80
2023-09-17T02:00:21.137Z,6.07
2023-09-17T02:02:47.458Z,5.75
2023-09-17T02:05:13.715Z,6.25
2023-09-17T02:07:39.931Z,6.10
2023-09-17T02:10:06.194Z,6.30
2023-09-17T02:12:32.394Z,7.15
2023-09-17T02:14:58.628Z,6.22
2023-09-17T02:17:25.123Z,6.13
2023-09-17T02:19:51.468Z,5.43
2023-09-17T02:22:17.758Z,6.22
2023-09-17T02:24:43.975Z,7.45
2023-09-17T02:27:10.188Z,6.25
2023-09-17T02:29:36.399Z,6.95
2023-09-17T02:32:02.737Z,6.75
2023-09-17T02:34:28.962Z,6.55
2023-09-17T02:36:55.190Z,7.15
2023-09-17T02:39:21.404Z,6.80
2023-09-17T02:41:47.647Z,6.40
2023-09-17T02:44:13.874Z,6.70
2023-09-17T02:46:40.174Z,6.53
2023-09-17T02:49:06.430Z,6.97
2023-09-17T02:51:32.649Z,7.20
2023-09-17T02:53:58.844Z,6.18
2023-09-17T02:56:25.072Z,6.57
2023-09-17T02:58:51.346Z,6.43
2023-09-17T03:01:17.678Z,6.78
2023-09-17T03:03:43.897Z,6.55
2023-09-17T03:06:10.135Z,6.97
2023-09-17T03:08:36.386Z,6.78
2023-09-17T03:11:02.597Z,6.35
2023-09-17T03:13:28.828Z,6.38
2023-09-17T03:15:55.120Z,6.60
2023-09-17T03:18:21.333Z,7.00
2023-09-17T03:20:47.594Z,7.18
2023-09-17T03:23:13.851Z,5.85
2023-09-17T03:25:40.101Z,6.70
2023-09-17T03:28:06.314Z,6.15
2023-09-17T03:30:32.516Z,5.65
2023-09-17T03:33:04.966Z,7.70
2023-09-17T03:35:31.891Z,7.00
2023-09-17T03:37:58.125Z,7.07
2023-09-17T03:40:24.317Z,6.88
2023-09-17T03:42:50.502Z,7.30
2023-09-17T03:45:16.744Z,7.07
2023-09-17T03:47:43.051Z,7.05
2023-09-17T03:50:09.291Z,6.97
2023-09-17T03:52:35.566Z,7.30
2023-09-17T03:55:01.742Z,7.30
2023-09-17T03:57:27.945Z,6.97
2023-09-17T03:59:54.195Z,6.78
2023-09-17T04:02:20.456Z,7.10
2023-09-17T04:04:46.782Z,7.72
2023-09-17T04:07:13.086Z,6.72
2023-09-17T04:09:39.298Z,6.78
2023-09-17T04:12:05.488Z,7.65
2023-09-17T04:14:31.670Z,7.30
2023-09-17T04:16:58.067Z,6.57
2023-09-17T04:19:24.350Z,6.88
2023-09-17T04:21:50.599Z,7.05
2023-09-17T04:24:16.825Z,6.47
2023-09-17T04:26:43.055Z,7.00
2023-09-17T04:29:09.238Z,7.43
2023-09-17T04:31:35.536Z,6.15
2023-09-17T04:34:01.804Z,6.63
2023-09-17T04:36:27.987Z,6.78
2023-09-17T04:38:54.211Z,7.47
2023-09-17T04:41:20.453Z,6.32
2023-09-17T04:43:46.699Z,6.05
2023-09-17T04:46:12.987Z,7.07
2023-09-17T04:48:39.204Z,5.95
2023-09-17T04:51:05.481Z,6.43
2023-09-17T04:53:31.678Z,6.43
2023-09-17T04:55:58.144Z,6.32
2023-09-17T04:58:24.434Z,6.97
2023-09-17T05:00:50.684Z,6.40
2023-09-17T05:03:17.040Z,6.57
2023-09-17T05:05:43.406Z,6.28
2023-09-17T05:08:09.670Z,6.40
2023-09-17T05:10:35.945Z,6.65
2023-09-17T05:13:02.205Z,6.25
2023-09-17T05:15:28.473Z,6.97
2023-09-17T05:17:54.763Z,6.25
2023-09-17T05:20:20.970Z,6.05
2023-09-17T05:22:47.246Z,6.93
2023-09-17T05:25:13.455Z,6.05
2023-09-17T05:27:39.693Z,6.00
2023-09-17T05:30:05.941Z,6.07
2023-09-17T05:32:32.419Z,6.60
2023-09-17T05:34:58.684Z,5.32
2023-09-17T05:37:24.932Z,5.43
2023-09-17T05:39:51.244Z,6.20
2023-09-17T05:42:17.573Z,5.68
2023-09-17T05:44:55.706Z,5.57
2023-09-17T05:47:21.930Z,6.03
2023-09-17T05:49:48.418Z,5.82
2023-09-17T05:52:14.680Z,5.50
2023-09-17T05:54:40.851Z,5.55
2023-09-17T05:57:07.041Z,6.07
2023-09-17T05:59:33.392Z,5.38
2023-09-17T06:01:59.616Z,5.57
2023-09-17T06:04:25.899Z,5.35
2023-09-17T06:06:52.120Z,5.43
2023-09-17T06:09:18.346Z,5.90
2023-09-17T06:11:44.539Z,4.75
2023-09-17T06:14:10.790Z,5.30
2023-09-17T06:16:54.038Z,5.45
2023-09-17T06:19:32.144Z,5.80
2023-09-17T06:21:58.435Z,4.70
2023-09-17T06:24:24.582Z,5.78
2023-09-17T06:26:50.749Z,5.38
2023-09-17T06:29:16.948Z,5.70
2023-09-17T06:31:43.267Z,5.03
2023-09-17T06:34:09.536Z,5.25
2023-09-17T06:36:44.626Z,5.53
2023-09-17T06:39:10.845Z,5.05
2023-09-17T06:41:39.664Z,5.18
2023-09-17T06:44:07.334Z,5.23
2023-09-17T06:46:33.994Z,4.97
2023-09-17T06:49:00.330Z,4.65
2023-09-17T06:51:26.613Z,4.65
2023-09-17T06:53:53.142Z,5.10
2023-09-17T06:56:19.636Z,4.80
2023-09-17T06:58:45.915Z,4.68
2023-09-17T07:01:12.218Z,5.10
2023-09-17T07:03:38.472Z,4.80
2023-09-17T07:06:04.846Z,5.10
2023-09-17T07:08:31.113Z,4.80
2023-09-17T07:10:57.364Z,5.05
2023-09-17T07:13:23.676Z,5.07
2023-09-17T07:15:49.967Z,5.07
2023-09-17T07:18:16.326Z,5.20
2023-09-17T07:20:42.651Z,5.05
2023-09-17T07:23:08.892Z,5.63
2023-09-17T07:25:35.405Z,5.15
2023-09-17T07:31:00.934Z,4.90
2023-09-17T07:33:27.654Z,4.30
2023-09-17T07:35:53.975Z,4.80
2023-09-17T07:38:20.371Z,4.18
2023-09-17T07:40:46.721Z,3.83
2023-09-17T07:43:12.992Z,4.10
2023-09-17T07:45:39.218Z,4.20
2023-09-17T07:48:05.537Z,4.13
2023-09-17T07:50:31.816Z,4.22
2023-09-17T07:52:58.067Z,3.97
2023-09-17T07:55:24.355Z,4.20
2023-09-17T07:57:50.563Z,4.15
2023-09-17T08:00:16.788Z,3.92
2023-09-17T08:02:43.183Z,3.80
2023-09-17T08:05:09.530Z,4.10
2023-09-17T08:07:35.804Z,4.00
2023-09-17T08:10:02.115Z,3.55
2023-09-17T08:12:28.317Z,3.25
2023-09-17T08:14:55.599Z,3.60
2023-09-17T08:17:21.927Z,3.70
2023-09-17T08:19:48.216Z,3.58
2023-09-17T08:22:14.477Z,4.30
2023-09-17T08:24:40.643Z,4.05
2023-09-17T08:27:06.885Z,4.07
2023-09-17T08:29:33.072Z,3.83
2023-09-17T08:31:59.486Z,3.85
2023-09-17T08:34:25.815Z,4.20
2023-09-17T08:36:52.046Z,3.83
2023-09-17T08:39:18.329Z,3.97
2023-09-17T08:41:44.542Z,3.78
2023-09-17T08:44:10.929Z,3.47
2023-09-17T08:46:37.260Z,3.80
2023-09-17T08:49:03.588Z,4.22
2023-09-17T08:51:30.809Z,4.00
2023-09-17T08:53:57.026Z,3.53
2023-09-17T08:56:23.268Z,3.42
2023-09-17T08:58:49.604Z,3.85
2023-09-17T09:01:15.848Z,3.78
2023-09-17T09:03:42.194Z,3.65
2023-09-17T09:06:08.525Z,3.63
2023-09-17T09:08:34.812Z,3.70
2023-09-17T09:11:02.035Z,3.60
2023-09-17T09:13:28.546Z,2.97
2023-09-17T09:15:54.807Z,3.38
2023-09-17T09:18:21.269Z,3.78
2023-09-17T09:20:47.492Z,3.20
2023-09-17T09:23:13.756Z,3.30
2023-09-17T09:25:39.978Z,3.47
2023-09-17T09:28:06.195Z,3.38
2023-09-17T09:30:36.108Z,2.58
2023-09-17T09:33:02.369Z,3.10
2023-09-17T09:35:28.687Z,3.28
2023-09-17T09:37:55.040Z,3.00
2023-09-17T09:40:21.299Z,3.40
2023-09-17T09:42:47.601Z,3.10
2023-09-17T09:45:13.884Z,3.30
2023-09-17T09:47:40.058Z,3.22
2023-09-17T09:50:06.266Z,3.08
2023-09-17T09:52:32.633Z,2.95
2023-09-17T09:54:58.919Z,2.95
2023-09-17T09:57:25.154Z,2.90
2023-09-17T09:59:51.495Z,2.65
2023-09-17T10:02:17.768Z,3.35
2023-09-17T10:04:44.076Z,3.17
2023-09-17T10:07:10.337Z,3.17
2023-09-17T10:09:36.547Z,3.13
2023-09-17T10:12:02.774Z,2.90
2023-09-17T10:14:29.038Z,3.28
2023-09-17T10:16:55.318Z,3.35
2023-09-17T10:19:21.530Z,2.88
2023-09-17T10:21:47.732Z,3.10
2023-09-17T10:24:13.976Z,2.72
2023-09-17T10:26:40.209Z,2.88
2023-09-17T10:29:06.454Z,3.03
2023-09-17T10:31:32.821Z,3.45
2023-09-17T10:33:59.120Z,2.72
2023-09-17T10:36:25.346Z,2.92
2023-09-17T10:38:51.594Z,2.72
2023-09-17T10:41:17.827Z,3.58
2023-09-17T10:43:44.059Z,3.00
2023-09-17T10:46:10.309Z,2.92
2023-09-17T10:48:36.525Z,3.50
2023-09-17T10:51:02.708Z,3.00
2023-09-17T10:53:28.976Z,3.40
2023-09-17T10:55:55.265Z,2.80
2023-09-17T10:58:21.631Z,3.05
2023-09-17T11:00:47.887Z,2.92
2023-09-17T11:03:14.191Z,2.75
2023-09-17T11:05:40.522Z,2.90
2023-09-17T11:08:06.804Z,2.55
2023-09-17T11:10:33.244Z,2.65
2023-09-17T11:12:59.553Z,2.30
2023-09-17T11:15:25.777Z,2.40
2023-09-17T11:17:52.128Z,2.72
2023-09-17T11:20:18.435Z,4.00
2023-09-17T11:22:44.735Z,3.00
2023-09-17T11:25:11.017Z,2.58
2023-09-17T11:27:37.200Z,2.97
2023-09-17T11:30:03.407Z,3.00
2023-09-17T11:32:29.664Z,2.33
2023-09-17T11:34:55.978Z,3.08
2023-09-17T11:37:22.298Z,2.60
2023-09-17T11:39:48.491Z,2.60
2023-09-17T11:42:14.901Z,2.60
2023-09-17T11:44:41.193Z,2.50
2023-09-17T11:47:07.412Z,2.70
2023-09-17T11:49:33.775Z,2.65
2023-09-17T11:52:00.221Z,2.47
2023-09-17T11:54:26.454Z,2.72
2023-09-17T11:56:52.665Z,2.72
2023-09-17T11:59:18.834Z,2.92
2023-09-17T12:01:45.151Z,2.33
2023-09-17T12:04:11.524Z,2.50
2023-09-17T12:06:37.759Z,2.75
2023-09-17T12:09:03.980Z,3.08
2023-09-17T12:11:30.243Z,3.03
2023-09-17T12:13:56.436Z,2.60
2023-09-17T12:16:22.671Z,2.65
2023-09-17T12:18:49.892Z,3.10
2023-09-17T12:21:19.478Z,2.60
2023-09-17T12:23:45.677Z,3.05
2023-09-17T12:26:11.882Z,3.10
2023-09-17T12:28:38.158Z,2.53
2023-09-17T12:31:04.456Z,2.92
2023-09-17T12:33:30.710Z,2.50
2023-09-17T12:35:56.889Z,2.50
2023-09-17T12:38:23.079Z,2.70
2023-09-17T12:40:49.368Z,2.60
2023-09-17T12:43:15.661Z,2.78
2023-09-17T12:45:41.917Z,2.72
2023-09-17T12:48:08.190Z,3.15
2023-09-17T12:50:34.481Z,2.65
2023-09-17T12:53:00.721Z,2.60
2023-09-17T12:55:26.944Z,2.40
2023-09-17T12:57:53.171Z,2.47
2023-09-17T13:00:19.445Z,2.85
2023-09-17T13:02:45.781Z,2.65
2023-09-17T13:05:12.015Z,2.42
2023-09-17T13:07:38.293Z,2.55
2023-09-17T13:10:04.596Z,2.67
2023-09-17T13:12:30.792Z,3.28
2023-09-17T13:14:57.066Z,2.47
2023-09-17T13:17:23.271Z,3.17
2023-09-17T13:19:49.521Z,2.38
2023-09-17T13:22:15.819Z,2.85
2023-09-17T13:24:42.021Z,2.58
2023-09-17T13:27:08.186Z,2.70
2023-09-17T13:29:34.430Z,2.38
2023-09-17T13:32:00.731Z,2.35
2023-09-17T13:34:26.984Z,2.60
2023-09-17T13:36:53.208Z,2.78
2023-09-17T13:39:19.418Z,2.80
2023-09-17T13:41:45.621Z,2.95
2023-09-17T13:44:11.982Z,2.60
2023-09-17T13:46:38.233Z,2.28
2023-09-17T13:49:04.520Z,2.58
2023-09-17T13:51:30.709Z,2.35
2023-09-17T13:53:56.916Z,2.67
2023-09-17T13:56:23.118Z,2.15
2023-09-17T13:58:49.446Z,2.50
2023-09-17T14:01:15.809Z,2.47
2023-09-17T14:03:42.003Z,2.60
2023-09-17T14:06:08.219Z,3.22
2023-09-17T14:08:34.427Z,2.60
2023-09-17T14:11:00.728Z,2.33
2023-09-17T14:13:26.994Z,2.45
2023-09-17T14:15:53.216Z,2.72
2023-09-17T14:18:19.453Z,2.20
2023-09-17T14:20:45.685Z,3.45
2023-09-17T14:23:11.983Z,2.40
2023-09-17T14:25:38.281Z,2.80
2023-09-17T14:28:04.593Z,2.20
2023-09-17T14:30:30.795Z,2.20
2023-09-17T14:32:57.151Z,2.28
2023-09-17T14:35:23.578Z,2.70
2023-09-17T14:37:49.878Z,2.25
2023-09-17T14:40:16.158Z,2.40
2023-09-17T14:42:42.360Z,2.22
2023-09-17T14:45:08.588Z,2.42
2023-09-17T14:47:34.939Z,2.38
2023-09-17T14:50:01.264Z,2.47
2023-09-17T14:52:27.638Z,2.45
2023-09-17T14:54:54.133Z,2.35
2023-09-17T14:57:20.504Z,2.30
2023-09-17T14:59:46.735Z,2.72
2023-09-17T15:02:13.107Z,2.22
2023-09-17T15:04:39.560Z,2.53
2023-09-17T15:07:05.940Z,1.98
2023-09-17T15:09:32.170Z,2.22
2023-09-17T15:11:58.427Z,2.60
2023-09-17T15:14:25.733Z,3.40
2023-09-17T15:16:52.069Z,1.90
2023-09-17T15:19:18.326Z,3.40
2023-09-17T15:21:44.577Z,2.17
2023-09-17T15:24:10.804Z,3.33
2023-09-17T15:26:37.093Z,1.88
2023-09-17T15:29:03.334Z,2.42
2023-09-17T15:31:29.569Z,2.00
2023-09-17T15:33:55.970Z,2.85
2023-09-17T15:36:22.275Z,1.88
2023-09-17T15:38:48.455Z,2.53
2023-09-17T15:41:14.703Z,2.33
2023-09-17T15:43:41.002Z,2.58
2023-09-17T15:46:07.293Z,2.17
2023-09-17T15:48:33.530Z,2.42
2023-09-17T15:50:59.743Z,1.73
2023-09-17T15:53:25.936Z,2.20
2023-09-17T15:55:52.234Z,2.22
2023-09-17T15:58:18.456Z,2.80
2023-09-17T16:00:44.726Z,2.92
2023-09-17T16:03:11.061Z,2.80
2023-09-17T16:05:37.383Z,2.35
2023-09-17T16:08:03.660Z,2.33
2023-09-17T16:10:29.905Z,2.40
2023-09-17T16:12:58.071Z,2.20
2023-09-17T16:15:24.521Z,2.05
2023-09-17T16:17:50.819Z,2.42
2023-09-17T16:20:17.174Z,3.38
2023-09-17T16:22:43.415Z,2.70
2023-09-17T16:25:09.751Z,2.38
2023-09-17T16:27:36.047Z,2.40
2023-09-17T16:30:02.280Z,2.33
2023-09-17T16:32:28.628Z,2.97
2023-09-17T16:34:54.962Z,2.92
2023-09-17T16:37:21.154Z,2.33
2023-09-17T16:39:47.330Z,2.50
2023-09-17T16:42:13.583Z,1.88
2023-09-17T16:44:39.825Z,2.53
2023-09-17T16:47:06.145Z,2.10
2023-09-17T16:49:32.422Z,2.45
2023-09-17T16:51:58.704Z,2.85
2023-09-17T16:54:24.920Z,2.20
2023-09-17T16:56:51.169Z,2.55
2023-09-17T16:59:17.433Z,2.55
2023-09-17T17:01:43.865Z,2.20
2023-09-17T17:04:10.322Z,3.22
2023-09-17T17:06:36.716Z,3.08
2023-09-17T17:09:02.977Z,2.47
2023-09-17T17:11:29.174Z,2.50
2023-09-17T17:13:55.730Z,2.83
2023-09-17T17:16:22.159Z,2.53
2023-09-17T17:18:48.366Z,2.53
2023-09-17T17:21:14.630Z,3.20
2023-09-17T17:23:40.879Z,2.70
2023-09-17T17:26:07.113Z,3.20
2023-09-17T17:28:33.434Z,2.63
2023-09-17T17:30:59.746Z,2.15
2023-09-17T17:33:26.065Z,2.30
2023-09-17T17:35:52.277Z,2.55
2023-09-17T17:38:18.502Z,2.50
2023-09-17T17:40:44.790Z,2.58
2023-09-17T17:43:11.082Z,3.15
2023-09-17T17:45:37.309Z,2.70
2023-09-17T17:48:03.565Z,2.67
2023-09-17T17:50:29.883Z,2.75
2023-09-17T17:52:56.208Z,2.92
2023-09-17T17:55:22.469Z,2.70
2023-09-17T17:57:48.719Z,3.40
2023-09-17T18:00:14.951Z,3.03
2023-09-17T18:02:41.426Z,2.92
2023-09-17T18:05:07.894Z,2.53
2023-09-17T18:07:36.969Z,2.83
2023-09-17T18:10:03.315Z,3.38
2023-09-17T18:12:29.560Z,2.83
2023-09-17T18:14:55.863Z,2.95
2023-09-17T18:17:22.188Z,3.25
2023-09-17T18:19:48.847Z,2.83
2023-09-17T18:22:15.094Z,3.13
2023-09-17T18:24:44.157Z,3.53
2023-09-17T18:27:10.403Z,3.50
2023-09-17T18:29:36.626Z,3.00
2023-09-17T18:32:02.849Z,3.25
2023-09-17T18:34:29.086Z,3.30
2023-09-17T18:36:55.329Z,3.47
2023-09-17T18:39:21.542Z,3.00
2023-09-17T18:41:47.739Z,3.15
2023-09-17T18:44:14.020Z,2.88
2023-09-17T18:46:40.317Z,2.50
2023-09-17T18:49:06.532Z,2.65
2023-09-17T18:51:32.724Z,2.88
2023-09-17T18:53:58.984Z,2.67
2023-09-17T18:56:35.480Z,2.92
2023-09-17T18:59:04.461Z,2.70
2023-09-17T19:01:30.708Z,2.50
2023-09-17T19:03:57.242Z,2.60
2023-09-17T19:06:23.805Z,2.83
2023-09-17T19:08:50.010Z,2.38
2023-09-17T19:11:16.371Z,2.75
2023-09-17T19:13:42.655Z,2.42
2023-09-17T19:16:10.226Z,2.22
2023-09-17T19:18:36.449Z,2.70
2023-09-17T19:21:07.805Z,2.30
2023-09-17T19:23:41.700Z,2.10
2023-09-17T19:26:08.002Z,2.42
2023-09-17T19:28:34.247Z,2.08
2023-09-17T19:31:00.431Z,2.00
2023-09-17T19:33:26.682Z,1.90
2023-09-17T19:35:52.968Z,1.85
2023-09-17T19:38:19.247Z,2.10
2023-09-17T19:40:45.557Z,2.38
2023-09-17T19:43:11.934Z,2.17
2023-09-17T19:45:38.220Z,1.90
2023-09-17T19:48:04.568Z,2.05
2023-09-17T19:50:30.851Z,3.00
2023-09-17T19:52:57.098Z,2.20
2023-09-17T19:55:23.329Z,2.30
2023-09-17T19:57:49.619Z,2.38
2023-09-17T20:00:15.837Z,2.22
2023-09-17T20:02:42.164Z,2.35
2023-09-17T20:05:08.482Z,1.92
2023-09-17T20:07:34.773Z,2.20
2023-09-17T20:10:01.028Z,2.45
2023-09-17T20:12:27.288Z,2.55
2023-09-17T20:14:53.496Z,2.38
2023-09-17T20:17:19.900Z,2.10
2023-09-17T20:19:46.183Z,2.50
2023-09-17T20:22:12.422Z,2.20
2023-09-17T20:24:38.709Z,2.03
2023-09-17T20:27:04.980Z,1.98
2023-09-17T20:29:31.296Z,4.05
2023-09-17T20:31:57.594Z,3.05
2023-09-17T20:34:27.378Z,2.28
2023-09-17T20:36:53.635Z,1.83
2023-09-17T20:39:19.955Z,1.83
2023-09-17T20:41:46.246Z,2.47
2023-09-17T20:44:12.474Z,2.70
2023-09-17T20:46:38.726Z,2.08
2023-09-17T20:49:04.970Z,4.32
2023-09-17T20:51:31.170Z,2.38
2023-09-17T20:53:57.436Z,2.00
2023-09-17T20:56:26.419Z,2.13
2023-09-17T20:58:52.812Z,2.25
2023-09-17T21:01:19.231Z,2.47
2023-09-17T21:03:45.554Z,2.22
2023-09-17T21:06:11.841Z,2.42
2023-09-17T21:08:38.016Z,2.05
2023-09-17T21:11:04.377Z,2.22
2023-09-17T21:13:30.649Z,2.20
2023-09-17T21:15:56.936Z,2.22
2023-09-17T21:18:23.211Z,2.17
2023-09-17T21:20:49.395Z,2.22
2023-09-17T21:23:15.658Z,2.15
2023-09-17T21:25:41.921Z,2.58
2023-09-17T21:28:08.158Z,2.45
2023-09-17T21:30:34.405Z,2.40
2023-09-17T21:33:00.741Z,2.13
2023-09-17T21:35:27.010Z,2.30
2023-09-17T21:37:53.260Z,2.78
2023-09-17T21:40:19.507Z,2.15
2023-09-17T21:42:45.725Z,2.20
2023-09-17T21:45:11.954Z,1.70
2023-09-17T21:47:38.215Z,2.33
2023-09-17T21:50:04.510Z,2.45
2023-09-17T21:52:30.761Z,2.13
2023-09-17T21:54:57.042Z,2.22
2023-09-17T21:57:23.236Z,2.13
2023-09-17T21:59:49.484Z,1.70
2023-09-17T22:02:15.728Z,2.38
2023-09-17T22:04:42.014Z,2.10
2023-09-17T22:07:08.205Z,2.13
2023-09-17T22:09:34.434Z,3.05
2023-09-17T22:12:00.747Z,2.00
2023-09-17T22:14:27.021Z,2.17
2023-09-17T22:16:53.400Z,2.05
2023-09-17T22:19:19.692Z,2.50
2023-09-17T22:21:45.924Z,2.33
2023-09-17T22:24:12.140Z,2.10
2023-09-17T22:26:38.335Z,1.80
2023-09-17T22:29:04.549Z,2.40
2023-09-17T22:31:30.847Z,2.47
2023-09-17T22:33:59.452Z,2.38
2023-09-17T22:36:25.688Z,1.80
2023-09-17T22:38:52.148Z,2.13
2023-09-17T22:41:18.644Z,2.25
2023-09-17T22:43:44.922Z,1.98
2023-09-17T22:46:11.148Z,2.28
2023-09-17T22:48:37.383Z,2.17
2023-09-17T22:51:03.611Z,2.45
2023-09-17T22:53:29.863Z,2.05
2023-09-17T22:55:56.143Z,2.13
2023-09-17T22:58:22.392Z,2.13
2023-09-17T23:00:48.643Z,2.15
2023-09-17T23:03:14.902Z,1.83
2023-09-17T23:05:41.297Z,1.95
2023-09-17T23:08:07.576Z,1.98
2023-09-17T23:10:33.812Z,2.72
2023-09-17T23:13:00.035Z,2.20
2023-09-17T23:15:26.207Z,2.25
2023-09-17T23:17:52.482Z,2.10
2023-09-17T23:20:18.733Z,2.00
2023-09-17T23:22:44.959Z,2.38
2023-09-17T23:25:11.177Z,1.92
2023-09-17T23:27:37.382Z,2.22
2023-09-17T23:30:03.603Z,2.35
2023-09-17T23:32:29.869Z,1.98
2023-09-17T23:34:56.092Z,1.95
2023-09-17T23:37:22.270Z,2.65
2023-09-17T23:39:48.472Z,2.15
2023-09-17T23:42:15.893Z,2.28
2023-09-17T23:44:42.095Z,2.22
2023-09-17T23:47:08.358Z,2.25
2023-09-17T23:49:34.636Z,2.33
2023-09-17T23:52:00.872Z,2.30
2023-09-17T23:54:27.078Z,2.33
2023-09-17T23:56:53.272Z,1.92
2023-09-17T23:59:19.621Z,2.22
